India Meteorological Department
Airport METARs
Date : 06-12-2020
Sl. # Airport METAR
1 Agartala VEAT 060000Z 00000KT 1200 BR NSC 17/17 Q1015 BECMG 0800 FG=
2 Ahmedabad VAAH 060000Z 02003KT 4000 HZ NSC 17/13 Q1012 TEMPO 3000 HZ=
3 Amritsar VIAR 060000Z 00000KT 2200 BR SCT100 14/12 Q1015 NOSIG=
4 Aurangabad VAAU 060000Z 00000KT 4000 HZ NSC 12/09 Q1014 NOSIG=
5 Bangalore VOBL 060000Z 05006KT 5000 BR BKN008 SCT012 19/19 Q1015 NOSIG=
6 Baroda VABO 060000Z 00000KT 5000 HZ NSC 17/16 Q1011 TEMPO 3000=
7 Bhopal VABP 060000Z 18003KT 5000 HZ NSC 14/12 Q1016 NOSIG=
8 Bhubaneswar VEBS 060000Z 00000KT 1200 BR NSC 18/17 Q1014 BECMG 0800 FG=
9 Chennai COR VOMM 060000Z 06005KT 3000 -DZ FEW012 SCT016 FEW025CB BKN080 26/25 Q1010 NOSIG=
10 Coimbatore VOCB 060000Z 03005KT 5000 BR FEW012 SCT080 23/21 Q1012 NOSIG=
11 Colombo VCBI 060010Z VRB01KT 8000 NSC 24/23 Q1009 NOSIG=
12 Delhi VIDP 060000Z 12006KT 0800 R28/P2000 R29/P2000 MIFG NSC 15/14 Q1014 NOSIG=
13 Dehradun VIDN 060000Z 02002KT 3000 BR NSC 09/09 Q1016 =
14 Gauhati VEGT 060000Z 00000KT 2000 BR SCT018 BKN100 17/17 Q1016 NOSIG=
15 Gaya VEGY 060000Z 11004KT 1300 BR NSC 11/10 Q1015=
16 Goa VOGO 052330Z 07006KT 6000 FEW090 FEW220 22/14 Q1009 NOSIG=
17 Hyderabad VOHS 060000Z 11004KT 6000 FEW015 SCT100 16/12 Q1015 TEMPO 5000 BR=
18 Indore VAID 060000Z 14004KT 5000 HZ NSC 15/04 Q1016 NOSIG=
19 Jaipur VIJP 060000Z 00000KT 2000 HZ NSC 17/12 Q1014 NOSIG=
20 Kochi VOCI 060000Z 07005KT 4000 BR SCT015 BKN080 25/25 Q1008 NOSIG=
21 Kolkata VECC 060000Z 00000KT 1300 R19L/1300 R01R/1800 BR NSC 16/15 Q1014 NOSIG=
22 Kozhikode VOCL 060000Z 00000KT 4000 BR SCT012 BKN080 24/22 Q1008 NOSIG=
23 Lucknow VILK 060000Z 00000KT 0450 R27/1000 FG NSC 14/13 Q1014 NOSIG=
24 Madurai VOMD 060000Z 36004KT 5000 DZ FEW018 SCT100 23/22 Q1010 NOSIG=
25 Mohanbari VEMN 060000Z 00000KT 3000 BR SCT020 BKN100 16/15 Q1016 NOSIG=
26 Mumbai VABB 060000Z 00000KT 3000 FU NSC 23/13 Q1011 NOSIG=
27 Nagpur VANP 060000Z 01002KT 2500 HZ NSC 13/10 NOSIG=
28 Patna VEPT 060000Z 00000KT 0700 R25/1000 FG NSC 12/11 Q1014 BECMG 0600 FG=
29 Pathankot VIPK 060000Z VRB01KT 3000 BR SCT100 12/10 Q1016 NOSIG=
30 Raipur VERP 060000Z 05003KT 2000 BR NSC 15/12 Q1015 NOSIG=
31 Ranchi VERC 060000Z 00000KT 2000 HZ NSC 12/08 Q1017 NOSIG=
32 Trichy VOTR 060000Z 02005KT 3000 -DZ SCT015 OVC080 24/23 Q1009 NOSIG=
33 Trivandrum VOTV 060000Z VRB02KT 3000 BR FEW015 SCT080 27/23 Q1008 TEMPO 2000 BR=
34 Udaipur VAUD 060000Z 00000KT 3000 HZ NSC 13/10 Q1016 NOSIG=
35 Varanasi VEBN 060000Z VRB02KT 0400 FG NSC 15/13 Q1014 NOSIG=
36 Vizag VOVZ 060000Z 05007KT 2500 BR FEW018 SCT220 22/19 Q1013 NOSIG=
37 Male VRMM 060000Z 26012KT 9999 FEW018 BKN270 27/25 Q1008 NOSIG=
38 Gan VRMG 060000Z 28016KT 9999 SCT017 FEW018CB BKN260 28/25 Q1009 CB E,SSW,W,NW TEMPO 5000 -TSRA=
39 Kathmandu VNKT 060020Z VRB02KT 6000 FEW010 SCT030 09/08 Q1020 NOSIG=
40 Dhaka VGHS 060000Z 00000KT 1000 BR NSC 23/21 Q1015 TEMPO S/VIS 0500M=
41 Colombo VCBI 060010Z VRB01KT 8000 NSC 24/23 Q1009 NOSIG=
42 Karachi OPKC 052355Z 03003KT 1200 BR NSC 18/17 Q1013 TEMPO 1200 BR TEMPO 0500 FG=
43 Lahore OPLA 052355Z 00000KT 3000 BR SCT100 12/10 Q1013 BECMG 2000 RMK QFE985 RMK A29.92=
44 Leh VILH 060000Z VRB02KT 6000 SCT060 BKN120 -5/-1 Q1022 NOSIG=
45 Sri Nagar VISR 060000Z VRB02KT 1500 BR SCT025 BKN090 05/03 Q1023 NOSIG=
46 Jodhpur VIJO 060000Z VRB02KT 6000 SKC 15/11 Q1015 NOSIG=
47 Jaisalmer VIJR 060000Z 05003KT 6000 SKC 15/05 Q1015 NOSIG=
48 Bhuj-Rudra VABJ 060000Z VRB02KT 6000 SKC 17/15 Q1013 NOSIG=
49 Gorakhpur VEGK 060000Z VRB01KT 0800 FG SKC 11/11 Q1014 NOSIG=
50 Agra VIAG 060000Z VRB01KT 0900 FG SKC 12/12 Q1013 BECMG 0800=
51 Bagdogra VEBD 060000Z VRB01KT 3000 BR SCT030 BKN080 16/15 Q1016 NOSIG=
52 Gwalior VIGR 060000Z 27003KT 2500 BR SKC 12/12 Q1014 BECMG 2000=
53 Pune VAPO 060000Z 00000KT 6000 SKC 14/08 Q1016 NOSIG=
54 Chandigarh VICG 060000Z VRB01KT 4000 HZ SCT100 16/11 Q1015 NOSIG=
55 Jamnagar VAJM 060000Z 00000KT 3000 BR SKC 18/17 Q1012 TEMPO 2000M=

 

--- End of List ---